sensor_id;sensor_type;location;lat;lon;timestamp;P1;durP1;ratioP1;P2;durP2;ratioP2
16181;SDS011;8197;51.664;7.114;2024-01-27T00:03:41;44.83;;;6.30;;
16181;SDS011;8197;51.664;7.114;2024-01-27T00:08:44;36.03;;;4.50;;
16181;SDS011;8197;51.664;7.114;2024-01-27T00:13:48;39.37;;;5.10;;
16181;SDS011;8197;51.664;7.114;2024-01-27T00:18:51;30.00;;;3.93;;
16181;SDS011;8197;51.664;7.114;2024-01-27T00:23:54;47.37;;;4.83;;
16181;SDS011;8197;51.664;7.114;2024-01-27T00:29:03;42.23;;;4.80;;
16181;SDS011;8197;51.664;7.114;2024-01-27T00:34:06;27.37;;;4.60;;
16181;SDS011;8197;51.664;7.114;2024-01-27T00:39:09;29.90;;;4.00;;
16181;SDS011;8197;51.664;7.114;2024-01-27T00:44:13;30.90;;;4.23;;
16181;SDS011;8197;51.664;7.114;2024-01-27T00:49:16;29.10;;;4.10;;
16181;SDS011;8197;51.664;7.114;2024-01-27T00:54:19;32.23;;;4.20;;
16181;SDS011;8197;51.664;7.114;2024-01-27T00:59:23;31.80;;;4.70;;
16181;SDS011;8197;51.664;7.114;2024-01-27T01:04:26;23.70;;;3.70;;
16181;SDS011;8197;51.664;7.114;2024-01-27T01:09:29;29.53;;;4.43;;
16181;SDS011;8197;51.664;7.114;2024-01-27T01:14:33;31.40;;;5.00;;
16181;SDS011;8197;51.664;7.114;2024-01-27T01:19:36;24.10;;;3.73;;
16181;SDS011;8197;51.664;7.114;2024-01-27T01:24:40;35.33;;;4.40;;
16181;SDS011;8197;51.664;7.114;2024-01-27T01:29:44;32.63;;;3.87;;
16181;SDS011;8197;51.664;7.114;2024-01-27T01:34:47;30.23;;;5.03;;
16181;SDS011;8197;51.664;7.114;2024-01-27T01:39:50;33.27;;;4.60;;
16181;SDS011;8197;51.664;7.114;2024-01-27T01:44:54;32.63;;;5.27;;
16181;SDS011;8197;51.664;7.114;2024-01-27T01:49:57;33.17;;;5.63;;
16181;SDS011;8197;51.664;7.114;2024-01-27T01:55:00;40.07;;;5.60;;
16181;SDS011;8197;51.664;7.114;2024-01-27T02:00:06;34.07;;;5.03;;
16181;SDS011;8197;51.664;7.114;2024-01-27T02:05:09;34.87;;;5.27;;
16181;SDS011;8197;51.664;7.114;2024-01-27T02:10:13;18.60;;;2.50;;
16181;SDS011;8197;51.664;7.114;2024-01-27T02:15:19;36.73;;;5.33;;
16181;SDS011;8197;51.664;7.114;2024-01-27T02:20:23;33.20;;;5.00;;
16181;SDS011;8197;51.664;7.114;2024-01-27T02:25:27;28.60;;;4.50;;
16181;SDS011;8197;51.664;7.114;2024-01-27T02:30:30;29.23;;;4.70;;
16181;SDS011;8197;51.664;7.114;2024-01-27T02:35:33;23.87;;;4.30;;
16181;SDS011;8197;51.664;7.114;2024-01-27T02:40:37;31.20;;;4.70;;
16181;SDS011;8197;51.664;7.114;2024-01-27T02:45:40;43.10;;;5.60;;
16181;SDS011;8197;51.664;7.114;2024-01-27T02:50:43;35.33;;;4.80;;
16181;SDS011;8197;51.664;7.114;2024-01-27T02:55:47;36.67;;;4.60;;
16181;SDS011;8197;51.664;7.114;2024-01-27T03:00:50;37.23;;;4.23;;
16181;SDS011;8197;51.664;7.114;2024-01-27T03:05:52;31.17;;;5.73;;
16181;SDS011;8197;51.664;7.114;2024-01-27T03:10:57;36.43;;;4.70;;
16181;SDS011;8197;51.664;7.114;2024-01-27T03:16:00;30.30;;;5.30;;
16181;SDS011;8197;51.664;7.114;2024-01-27T03:21:03;37.03;;;6.90;;
16181;SDS011;8197;51.664;7.114;2024-01-27T03:26:09;50.13;;;6.80;;
16181;SDS011;8197;51.664;7.114;2024-01-27T03:31:12;34.67;;;6.63;;
16181;SDS011;8197;51.664;7.114;2024-01-27T03:36:15;34.40;;;5.67;;
16181;SDS011;8197;51.664;7.114;2024-01-27T03:41:20;34.47;;;6.27;;
16181;SDS011;8197;51.664;7.114;2024-01-27T03:46:22;33.10;;;6.33;;
16181;SDS011;8197;51.664;7.114;2024-01-27T03:51:25;36.10;;;6.90;;
16181;SDS011;8197;51.664;7.114;2024-01-27T03:56:30;29.90;;;6.57;;
16181;SDS011;8197;51.664;7.114;2024-01-27T04:01:33;35.37;;;6.30;;
16181;SDS011;8197;51.664;7.114;2024-01-27T04:06:36;26.20;;;5.80;;
16181;SDS011;8197;51.664;7.114;2024-01-27T04:11:41;39.10;;;6.50;;
16181;SDS011;8197;51.664;7.114;2024-01-27T04:16:44;30.37;;;7.10;;
16181;SDS011;8197;51.664;7.114;2024-01-27T04:21:46;38.43;;;6.57;;
16181;SDS011;8197;51.664;7.114;2024-01-27T04:26:51;31.30;;;5.93;;
16181;SDS011;8197;51.664;7.114;2024-01-27T04:31:54;31.43;;;6.53;;
16181;SDS011;8197;51.664;7.114;2024-01-27T04:36:57;29.60;;;6.70;;
16181;SDS011;8197;51.664;7.114;2024-01-27T04:42:01;36.27;;;6.57;;
16181;SDS011;8197;51.664;7.114;2024-01-27T04:47:04;36.03;;;7.30;;
16181;SDS011;8197;51.664;7.114;2024-01-27T04:52:07;35.93;;;7.13;;
16181;SDS011;8197;51.664;7.114;2024-01-27T04:57:11;37.80;;;6.43;;
16181;SDS011;8197;51.664;7.114;2024-01-27T05:02:14;27.80;;;7.20;;
16181;SDS011;8197;51.664;7.114;2024-01-27T05:07:17;40.07;;;8.37;;
16181;SDS011;8197;51.664;7.114;2024-01-27T05:12:21;40.13;;;8.30;;
16181;SDS011;8197;51.664;7.114;2024-01-27T05:17:25;38.00;;;8.53;;
16181;SDS011;8197;51.664;7.114;2024-01-27T05:22:27;45.07;;;8.10;;
16181;SDS011;8197;51.664;7.114;2024-01-27T05:27:32;44.83;;;7.70;;
16181;SDS011;8197;51.664;7.114;2024-01-27T05:32:34;34.67;;;7.40;;
16181;SDS011;8197;51.664;7.114;2024-01-27T05:37:38;29.73;;;7.33;;
16181;SDS011;8197;51.664;7.114;2024-01-27T05:42:42;45.20;;;8.77;;
16181;SDS011;8197;51.664;7.114;2024-01-27T05:47:46;45.10;;;6.60;;
16181;SDS011;8197;51.664;7.114;2024-01-27T05:52:49;32.33;;;7.60;;
16181;SDS011;8197;51.664;7.114;2024-01-27T05:57:53;37.23;;;8.37;;
16181;SDS011;8197;51.664;7.114;2024-01-27T06:02:58;38.73;;;7.20;;
16181;SDS011;8197;51.664;7.114;2024-01-27T06:08:01;36.40;;;6.87;;
16181;SDS011;8197;51.664;7.114;2024-01-27T06:13:05;37.50;;;8.03;;
16181;SDS011;8197;51.664;7.114;2024-01-27T06:18:08;39.87;;;8.63;;
16181;SDS011;8197;51.664;7.114;2024-01-27T06:23:12;26.30;;;7.83;;
16181;SDS011;8197;51.664;7.114;2024-01-27T06:28:16;44.47;;;8.73;;
16181;SDS011;8197;51.664;7.114;2024-01-27T06:33:19;40.87;;;8.90;;
16181;SDS011;8197;51.664;7.114;2024-01-27T06:38:22;33.67;;;8.67;;
16181;SDS011;8197;51.664;7.114;2024-01-27T06:43:26;45.43;;;9.30;;
16181;SDS011;8197;51.664;7.114;2024-01-27T06:48:29;39.40;;;8.60;;
16181;SDS011;8197;51.664;7.114;2024-01-27T06:53:32;29.20;;;7.83;;
16181;SDS011;8197;51.664;7.114;2024-01-27T06:58:36;34.97;;;9.33;;
16181;SDS011;8197;51.664;7.114;2024-01-27T07:03:39;41.40;;;8.67;;
16181;SDS011;8197;51.664;7.114;2024-01-27T07:08:42;35.73;;;8.67;;
16181;SDS011;8197;51.664;7.114;2024-01-27T07:13:46;35.57;;;7.70;;
16181;SDS011;8197;51.664;7.114;2024-01-27T07:18:49;33.00;;;7.80;;
16181;SDS011;8197;51.664;7.114;2024-01-27T07:23:53;37.60;;;8.20;;
16181;SDS011;8197;51.664;7.114;2024-01-27T07:28:57;36.50;;;8.80;;
16181;SDS011;8197;51.664;7.114;2024-01-27T07:34:01;39.33;;;8.67;;
16181;SDS011;8197;51.664;7.114;2024-01-27T07:39:04;34.37;;;7.73;;
16181;SDS011;8197;51.664;7.114;2024-01-27T07:44:09;34.17;;;7.33;;
16181;SDS011;8197;51.664;7.114;2024-01-27T07:49:12;44.00;;;7.70;;
16181;SDS011;8197;51.664;7.114;2024-01-27T07:54:16;31.33;;;7.77;;
16181;SDS011;8197;51.664;7.114;2024-01-27T07:59:20;35.30;;;8.97;;
16181;SDS011;8197;51.664;7.114;2024-01-27T08:04:23;45.47;;;9.67;;
16181;SDS011;8197;51.664;7.114;2024-01-27T08:09:26;48.03;;;10.47;;
16181;SDS011;8197;51.664;7.114;2024-01-27T08:14:30;41.10;;;8.83;;
16181;SDS011;8197;51.664;7.114;2024-01-27T08:19:34;45.50;;;8.47;;
16181;SDS011;8197;51.664;7.114;2024-01-27T08:24:37;41.10;;;8.30;;
16181;SDS011;8197;51.664;7.114;2024-01-27T08:29:41;48.63;;;8.20;;
16181;SDS011;8197;51.664;7.114;2024-01-27T08:34:44;53.57;;;13.63;;
16181;SDS011;8197;51.664;7.114;2024-01-27T08:39:48;36.70;;;8.00;;
16181;SDS011;8197;51.664;7.114;2024-01-27T08:44:54;37.57;;;8.47;;
16181;SDS011;8197;51.664;7.114;2024-01-27T08:49:57;35.87;;;8.10;;
16181;SDS011;8197;51.664;7.114;2024-01-27T08:55:00;33.53;;;7.60;;
16181;SDS011;8197;51.664;7.114;2024-01-27T09:00:05;39.30;;;8.60;;
16181;SDS011;8197;51.664;7.114;2024-01-27T09:05:09;28.97;;;6.33;;
16181;SDS011;8197;51.664;7.114;2024-01-27T09:10:12;27.73;;;4.93;;
16181;SDS011;8197;51.664;7.114;2024-01-27T09:15:18;35.90;;;7.70;;
16181;SDS011;8197;51.664;7.114;2024-01-27T09:20:21;47.47;;;9.20;;
16181;SDS011;8197;51.664;7.114;2024-01-27T09:25:25;28.20;;;5.33;;
16181;SDS011;8197;51.664;7.114;2024-01-27T09:30:30;36.67;;;6.90;;
16181;SDS011;8197;51.664;7.114;2024-01-27T09:35:36;45.13;;;6.40;;
16181;SDS011;8197;51.664;7.114;2024-01-27T09:40:39;33.50;;;7.50;;
16181;SDS011;8197;51.664;7.114;2024-01-27T09:45:44;45.33;;;6.53;;
16181;SDS011;8197;51.664;7.114;2024-01-27T09:50:48;32.73;;;5.93;;
16181;SDS011;8197;51.664;7.114;2024-01-27T09:55:53;37.23;;;7.40;;
16181;SDS011;8197;51.664;7.114;2024-01-27T10:01:01;35.47;;;6.47;;
16181;SDS011;8197;51.664;7.114;2024-01-27T10:06:04;29.13;;;6.77;;
16181;SDS011;8197;51.664;7.114;2024-01-27T10:11:10;33.63;;;6.50;;
16181;SDS011;8197;51.664;7.114;2024-01-27T10:16:17;25.23;;;5.80;;
16181;SDS011;8197;51.664;7.114;2024-01-27T10:21:20;32.30;;;5.97;;
16181;SDS011;8197;51.664;7.114;2024-01-27T10:26:25;35.17;;;7.13;;
16181;SDS011;8197;51.664;7.114;2024-01-27T10:31:29;29.60;;;5.53;;
16181;SDS011;8197;51.664;7.114;2024-01-27T10:36:40;24.83;;;5.13;;
16181;SDS011;8197;51.664;7.114;2024-01-27T10:41:44;37.10;;;6.10;;
16181;SDS011;8197;51.664;7.114;2024-01-27T10:46:49;54.30;;;5.77;;
16181;SDS011;8197;51.664;7.114;2024-01-27T10:51:53;45.10;;;5.40;;
16181;SDS011;8197;51.664;7.114;2024-01-27T10:56:57;35.40;;;5.23;;
16181;SDS011;8197;51.664;7.114;2024-01-27T11:02:02;42.13;;;6.93;;
16181;SDS011;8197;51.664;7.114;2024-01-27T11:07:08;30.97;;;6.20;;
16181;SDS011;8197;51.664;7.114;2024-01-27T11:12:12;35.43;;;6.23;;
16181;SDS011;8197;51.664;7.114;2024-01-27T11:17:17;37.43;;;6.87;;
16181;SDS011;8197;51.664;7.114;2024-01-27T11:22:23;34.40;;;6.30;;
16181;SDS011;8197;51.664;7.114;2024-01-27T11:27:28;37.07;;;5.90;;
16181;SDS011;8197;51.664;7.114;2024-01-27T11:32:33;32.00;;;6.60;;
16181;SDS011;8197;51.664;7.114;2024-01-27T11:37:36;37.60;;;6.23;;
16181;SDS011;8197;51.664;7.114;2024-01-27T11:42:41;40.73;;;6.13;;
16181;SDS011;8197;51.664;7.114;2024-01-27T11:47:45;27.90;;;6.40;;
16181;SDS011;8197;51.664;7.114;2024-01-27T11:52:48;40.23;;;6.30;;
16181;SDS011;8197;51.664;7.114;2024-01-27T11:57:51;26.07;;;5.90;;
16181;SDS011;8197;51.664;7.114;2024-01-27T12:02:56;43.03;;;5.87;;
16181;SDS011;8197;51.664;7.114;2024-01-27T12:07:59;40.37;;;6.97;;
16181;SDS011;8197;51.664;7.114;2024-01-27T12:13:02;41.03;;;7.27;;
16181;SDS011;8197;51.664;7.114;2024-01-27T12:18:07;31.10;;;6.03;;
16181;SDS011;8197;51.664;7.114;2024-01-27T12:23:10;30.83;;;5.40;;
16181;SDS011;8197;51.664;7.114;2024-01-27T12:28:14;44.73;;;7.43;;
16181;SDS011;8197;51.664;7.114;2024-01-27T12:33:21;32.03;;;7.30;;
16181;SDS011;8197;51.664;7.114;2024-01-27T12:38:27;32.67;;;7.10;;
16181;SDS011;8197;51.664;7.114;2024-01-27T12:43:30;35.03;;;6.70;;
16181;SDS011;8197;51.664;7.114;2024-01-27T12:48:35;31.53;;;7.10;;
16181;SDS011;8197;51.664;7.114;2024-01-27T12:53:38;42.23;;;6.53;;
16181;SDS011;8197;51.664;7.114;2024-01-27T12:58:44;35.80;;;6.10;;
16181;SDS011;8197;51.664;7.114;2024-01-27T13:03:49;30.93;;;6.67;;
16181;SDS011;8197;51.664;7.114;2024-01-27T13:08:53;36.13;;;7.57;;
16181;SDS011;8197;51.664;7.114;2024-01-27T13:13:56;24.87;;;5.10;;
16181;SDS011;8197;51.664;7.114;2024-01-27T13:19:00;30.20;;;5.73;;
16181;SDS011;8197;51.664;7.114;2024-01-27T13:24:05;30.10;;;5.60;;
16181;SDS011;8197;51.664;7.114;2024-01-27T13:29:10;33.27;;;6.40;;
16181;SDS011;8197;51.664;7.114;2024-01-27T13:34:14;33.70;;;5.70;;
16181;SDS011;8197;51.664;7.114;2024-01-27T13:39:17;29.27;;;5.53;;
16181;SDS011;8197;51.664;7.114;2024-01-27T13:44:20;26.27;;;4.37;;
16181;SDS011;8197;51.664;7.114;2024-01-27T13:49:25;36.03;;;6.10;;
16181;SDS011;8197;51.664;7.114;2024-01-27T13:54:28;42.10;;;6.47;;
16181;SDS011;8197;51.664;7.114;2024-01-27T13:59:32;29.53;;;5.80;;
16181;SDS011;8197;51.664;7.114;2024-01-27T14:04:37;39.23;;;5.13;;
16181;SDS011;8197;51.664;7.114;2024-01-27T14:09:39;33.23;;;5.13;;
16181;SDS011;8197;51.664;7.114;2024-01-27T14:14:43;33.80;;;5.67;;
16181;SDS011;8197;51.664;7.114;2024-01-27T14:19:47;39.33;;;3.30;;
16181;SDS011;8197;51.664;7.114;2024-01-27T14:24:51;30.13;;;4.47;;
16181;SDS011;8197;51.664;7.114;2024-01-27T14:29:54;24.60;;;3.80;;
16181;SDS011;8197;51.664;7.114;2024-01-27T14:34:59;42.80;;;10.30;;
16181;SDS011;8197;51.664;7.114;2024-01-27T14:40:03;21.77;;;3.60;;
16181;SDS011;8197;51.664;7.114;2024-01-27T14:45:07;23.93;;;6.03;;
16181;SDS011;8197;51.664;7.114;2024-01-27T14:50:12;36.67;;;8.50;;
16181;SDS011;8197;51.664;7.114;2024-01-27T14:55:16;27.30;;;6.20;;
16181;SDS011;8197;51.664;7.114;2024-01-27T15:00:19;35.43;;;5.50;;
16181;SDS011;8197;51.664;7.114;2024-01-27T15:05:24;38.23;;;5.50;;
16181;SDS011;8197;51.664;7.114;2024-01-27T15:10:26;30.20;;;6.67;;
16181;SDS011;8197;51.664;7.114;2024-01-27T15:15:29;33.67;;;5.97;;
16181;SDS011;8197;51.664;7.114;2024-01-27T15:20:34;30.43;;;4.87;;
16181;SDS011;8197;51.664;7.114;2024-01-27T15:25:37;33.90;;;5.10;;
16181;SDS011;8197;51.664;7.114;2024-01-27T15:30:40;24.90;;;4.37;;
16181;SDS011;8197;51.664;7.114;2024-01-27T15:35:45;31.50;;;5.20;;
16181;SDS011;8197;51.664;7.114;2024-01-27T15:40:48;32.40;;;5.87;;
16181;SDS011;8197;51.664;7.114;2024-01-27T15:45:51;31.77;;;5.10;;
16181;SDS011;8197;51.664;7.114;2024-01-27T15:50:55;25.67;;;5.07;;
16181;SDS011;8197;51.664;7.114;2024-01-27T15:55:58;24.30;;;5.33;;
16181;SDS011;8197;51.664;7.114;2024-01-27T16:01:01;32.43;;;5.90;;
16181;SDS011;8197;51.664;7.114;2024-01-27T16:06:06;37.83;;;6.70;;
16181;SDS011;8197;51.664;7.114;2024-01-27T16:11:09;32.70;;;7.90;;
16181;SDS011;8197;51.664;7.114;2024-01-27T16:16:12;36.63;;;8.00;;
16181;SDS011;8197;51.664;7.114;2024-01-27T16:21:17;36.50;;;7.87;;
16181;SDS011;8197;51.664;7.114;2024-01-27T16:26:20;46.03;;;6.83;;
16181;SDS011;8197;51.664;7.114;2024-01-27T16:31:23;41.77;;;7.70;;
16181;SDS011;8197;51.664;7.114;2024-01-27T16:36:28;39.73;;;8.00;;
16181;SDS011;8197;51.664;7.114;2024-01-27T16:41:30;28.80;;;8.10;;
16181;SDS011;8197;51.664;7.114;2024-01-27T16:46:33;39.70;;;8.20;;
16181;SDS011;8197;51.664;7.114;2024-01-27T16:51:37;28.17;;;9.70;;
16181;SDS011;8197;51.664;7.114;2024-01-27T16:56:40;31.87;;;8.90;;
16181;SDS011;8197;51.664;7.114;2024-01-27T17:01:43;34.40;;;7.27;;
16181;SDS011;8197;51.664;7.114;2024-01-27T17:06:48;38.67;;;7.80;;
16181;SDS011;8197;51.664;7.114;2024-01-27T17:11:51;34.40;;;8.60;;
16181;SDS011;8197;51.664;7.114;2024-01-27T17:16:54;29.37;;;7.73;;
16181;SDS011;8197;51.664;7.114;2024-01-27T17:21:58;32.80;;;7.20;;
16181;SDS011;8197;51.664;7.114;2024-01-27T17:27:02;38.43;;;7.57;;
16181;SDS011;8197;51.664;7.114;2024-01-27T17:32:08;35.83;;;8.73;;
16181;SDS011;8197;51.664;7.114;2024-01-27T17:37:12;36.70;;;10.73;;
16181;SDS011;8197;51.664;7.114;2024-01-27T17:42:15;35.43;;;10.20;;
16181;SDS011;8197;51.664;7.114;2024-01-27T17:47:19;37.30;;;8.40;;
16181;SDS011;8197;51.664;7.114;2024-01-27T17:52:23;44.53;;;11.90;;
16181;SDS011;8197;51.664;7.114;2024-01-27T17:57:26;50.37;;;13.83;;
16181;SDS011;8197;51.664;7.114;2024-01-27T18:02:30;38.13;;;11.37;;
16181;SDS011;8197;51.664;7.114;2024-01-27T18:07:34;32.77;;;9.83;;
16181;SDS011;8197;51.664;7.114;2024-01-27T18:12:37;40.27;;;11.83;;
16181;SDS011;8197;51.664;7.114;2024-01-27T18:17:43;50.43;;;14.33;;
16181;SDS011;8197;51.664;7.114;2024-01-27T18:22:48;43.43;;;15.73;;
16181;SDS011;8197;51.664;7.114;2024-01-27T18:27:51;57.60;;;17.17;;
16181;SDS011;8197;51.664;7.114;2024-01-27T18:32:54;44.27;;;17.00;;
16181;SDS011;8197;51.664;7.114;2024-01-27T18:37:59;41.43;;;15.23;;
16181;SDS011;8197;51.664;7.114;2024-01-27T18:43:02;56.87;;;18.97;;
16181;SDS011;8197;51.664;7.114;2024-01-27T18:48:06;49.90;;;21.97;;
16181;SDS011;8197;51.664;7.114;2024-01-27T18:53:11;85.20;;;38.30;;
16181;SDS011;8197;51.664;7.114;2024-01-27T18:58:14;59.90;;;30.57;;
16181;SDS011;8197;51.664;7.114;2024-01-27T19:03:22;72.10;;;25.33;;
16181;SDS011;8197;51.664;7.114;2024-01-27T19:08:27;49.67;;;20.50;;
16181;SDS011;8197;51.664;7.114;2024-01-27T19:13:29;68.87;;;21.40;;
16181;SDS011;8197;51.664;7.114;2024-01-27T19:18:32;54.83;;;17.67;;
16181;SDS011;8197;51.664;7.114;2024-01-27T19:23:37;53.47;;;18.13;;
16181;SDS011;8197;51.664;7.114;2024-01-27T19:28:40;47.33;;;16.43;;
16181;SDS011;8197;51.664;7.114;2024-01-27T19:33:43;101.50;;;41.30;;
16181;SDS011;8197;51.664;7.114;2024-01-27T19:38:47;69.07;;;25.47;;
16181;SDS011;8197;51.664;7.114;2024-01-27T19:43:50;49.90;;;18.37;;
16181;SDS011;8197;51.664;7.114;2024-01-27T19:48:53;56.77;;;18.00;;
16181;SDS011;8197;51.664;7.114;2024-01-27T19:53:57;49.40;;;17.70;;
16181;SDS011;8197;51.664;7.114;2024-01-27T19:59:00;54.10;;;17.50;;
16181;SDS011;8197;51.664;7.114;2024-01-27T20:04:03;44.80;;;17.57;;
16181;SDS011;8197;51.664;7.114;2024-01-27T20:09:08;49.50;;;19.80;;
16181;SDS011;8197;51.664;7.114;2024-01-27T20:14:17;50.87;;;18.90;;
16181;SDS011;8197;51.664;7.114;2024-01-27T20:19:21;44.13;;;15.13;;
16181;SDS011;8197;51.664;7.114;2024-01-27T20:24:25;42.23;;;14.70;;
16181;SDS011;8197;51.664;7.114;2024-01-27T20:29:28;72.47;;;34.53;;
16181;SDS011;8197;51.664;7.114;2024-01-27T20:34:31;59.10;;;23.93;;
16181;SDS011;8197;51.664;7.114;2024-01-27T20:39:36;52.63;;;17.07;;
16181;SDS011;8197;51.664;7.114;2024-01-27T20:44:42;54.43;;;16.37;;
16181;SDS011;8197;51.664;7.114;2024-01-27T20:49:45;46.20;;;16.50;;
16181;SDS011;8197;51.664;7.114;2024-01-27T20:54:49;45.37;;;16.43;;
16181;SDS011;8197;51.664;7.114;2024-01-27T20:59:53;51.53;;;16.47;;
16181;SDS011;8197;51.664;7.114;2024-01-27T21:04:55;37.63;;;15.00;;
16181;SDS011;8197;51.664;7.114;2024-01-27T21:10:00;45.73;;;16.43;;
16181;SDS011;8197;51.664;7.114;2024-01-27T21:15:03;41.17;;;14.20;;
16181;SDS011;8197;51.664;7.114;2024-01-27T21:20:07;42.50;;;16.00;;
16181;SDS011;8197;51.664;7.114;2024-01-27T21:25:14;48.60;;;14.93;;
16181;SDS011;8197;51.664;7.114;2024-01-27T21:30:17;49.13;;;13.60;;
16181;SDS011;8197;51.664;7.114;2024-01-27T21:35:20;50.40;;;16.07;;
16181;SDS011;8197;51.664;7.114;2024-01-27T21:40:25;46.47;;;18.10;;
16181;SDS011;8197;51.664;7.114;2024-01-27T21:45:28;58.00;;;17.77;;
16181;SDS011;8197;51.664;7.114;2024-01-27T21:50:31;39.73;;;16.20;;
16181;SDS011;8197;51.664;7.114;2024-01-27T21:55:35;41.73;;;13.90;;
16181;SDS011;8197;51.664;7.114;2024-01-27T22:00:38;47.23;;;17.80;;
16181;SDS011;8197;51.664;7.114;2024-01-27T22:05:42;67.53;;;21.50;;
16181;SDS011;8197;51.664;7.114;2024-01-27T22:10:46;46.53;;;16.63;;
16181;SDS011;8197;51.664;7.114;2024-01-27T22:15:49;38.30;;;16.50;;
16181;SDS011;8197;51.664;7.114;2024-01-27T22:20:56;44.93;;;14.87;;
16181;SDS011;8197;51.664;7.114;2024-01-27T22:26:01;38.73;;;14.17;;
16181;SDS011;8197;51.664;7.114;2024-01-27T22:31:04;40.83;;;13.50;;
16181;SDS011;8197;51.664;7.114;2024-01-27T22:36:07;37.07;;;12.77;;
16181;SDS011;8197;51.664;7.114;2024-01-27T22:41:13;42.37;;;12.50;;
16181;SDS011;8197;51.664;7.114;2024-01-27T22:46:16;34.00;;;11.90;;
16181;SDS011;8197;51.664;7.114;2024-01-27T22:51:19;44.07;;;15.40;;
16181;SDS011;8197;51.664;7.114;2024-01-27T22:56:23;55.77;;;16.83;;
16181;SDS011;8197;51.664;7.114;2024-01-27T23:01:26;52.70;;;15.03;;
16181;SDS011;8197;51.664;7.114;2024-01-27T23:06:29;39.73;;;13.30;;
16181;SDS011;8197;51.664;7.114;2024-01-27T23:11:34;34.80;;;11.47;;
16181;SDS011;8197;51.664;7.114;2024-01-27T23:16:37;42.07;;;10.93;;
16181;SDS011;8197;51.664;7.114;2024-01-27T23:21:40;31.47;;;10.90;;
16181;SDS011;8197;51.664;7.114;2024-01-27T23:26:44;39.80;;;11.97;;
16181;SDS011;8197;51.664;7.114;2024-01-27T23:31:48;28.57;;;10.60;;
16181;SDS011;8197;51.664;7.114;2024-01-27T23:36:51;34.13;;;11.00;;
16181;SDS011;8197;51.664;7.114;2024-01-27T23:41:55;35.40;;;10.47;;
16181;SDS011;8197;51.664;7.114;2024-01-27T23:46:58;45.40;;;11.23;;
16181;SDS011;8197;51.664;7.114;2024-01-27T23:52:02;36.93;;;11.70;;
16181;SDS011;8197;51.664;7.114;2024-01-27T23:57:12;37.20;;;10.97;;
